sensor_id;sensor_type;location;lat;lon;timestamp;pressure;altitude;pressure_sealevel;temperature;humidity
73633;BME280;61927;50.080;14.418;2023-03-01T00:01:10;100666.34;;;1.10;56.86
73633;BME280;61927;50.080;14.418;2023-03-01T00:03:36;100662.00;;;1.12;56.72
73633;BME280;61927;50.080;14.418;2023-03-01T00:06:03;100672.47;;;1.09;57.08
73633;BME280;61927;50.080;14.418;2023-03-01T00:08:29;100665.50;;;1.05;57.18
73633;BME280;61927;50.080;14.418;2023-03-01T00:11:21;100666.41;;;1.00;57.31
73633;BME280;61927;50.080;14.418;2023-03-01T00:13:50;100667.25;;;1.00;56.85
73633;BME280;61927;50.080;14.418;2023-03-01T00:16:18;100663.78;;;1.03;57.29
73633;BME280;61927;50.080;14.418;2023-03-01T00:18:45;100665.53;;;1.01;57.09
73633;BME280;61927;50.080;14.418;2023-03-01T00:21:11;100670.72;;;1.04;57.68
73633;BME280;61927;50.080;14.418;2023-03-01T00:23:37;100674.22;;;1.04;57.14
73633;BME280;61927;50.080;14.418;2023-03-01T00:26:07;100668.16;;;0.94;56.71
73633;BME280;61927;50.080;14.418;2023-03-01T00:28:33;100667.28;;;0.91;57.01
73633;BME280;61927;50.080;14.418;2023-03-01T00:31:05;100666.41;;;0.95;57.02
73633;BME280;61927;50.080;14.418;2023-03-01T00:33:32;100660.31;;;0.96;57.12
73633;BME280;61927;50.080;14.418;2023-03-01T00:35:59;100650.72;;;1.00;57.29
73633;BME280;61927;50.080;14.418;2023-03-01T00:38:25;100649.84;;;0.94;57.03
73633;BME280;61927;50.080;14.418;2023-03-01T00:40:50;100651.63;;;0.89;57.20
73633;BME280;61927;50.080;14.418;2023-03-01T00:43:16;100644.66;;;0.84;57.23
73633;BME280;61927;50.080;14.418;2023-03-01T00:45:41;100644.69;;;0.78;56.92
73633;BME280;61927;50.080;14.418;2023-03-01T00:48:07;100642.09;;;0.76;57.76
73633;BME280;61927;50.080;14.418;2023-03-01T00:50:33;100641.22;;;0.76;57.21
73633;BME280;61927;50.080;14.418;2023-03-01T00:52:58;100647.34;;;0.64;57.96
73633;BME280;61927;50.080;14.418;2023-03-01T00:55:24;100641.28;;;0.54;58.08
73633;BME280;61927;50.080;14.418;2023-03-01T00:57:51;100644.75;;;0.55;57.98
73633;BME280;61927;50.080;14.418;2023-03-01T01:00:17;100647.38;;;0.55;58.15
73633;BME280;61927;50.080;14.418;2023-03-01T01:02:43;100644.75;;;0.49;58.21
73633;BME280;61927;50.080;14.418;2023-03-01T01:05:09;100642.13;;;0.59;58.68
73633;BME280;61927;50.080;14.418;2023-03-01T01:07:34;100640.38;;;0.63;58.18
73633;BME280;61927;50.080;14.418;2023-03-01T01:10:00;100635.16;;;0.64;58.17
73633;BME280;61927;50.080;14.418;2023-03-01T01:12:26;100638.66;;;0.57;58.38
73633;BME280;61927;50.080;14.418;2023-03-01T01:14:51;100628.19;;;0.60;58.38
73633;BME280;61927;50.080;14.418;2023-03-01T01:17:19;100630.81;;;0.56;57.98
73633;BME280;61927;50.080;14.418;2023-03-01T01:19:44;100631.69;;;0.53;58.61
73633;BME280;61927;50.080;14.418;2023-03-01T01:22:10;100617.75;;;0.57;58.52
73633;BME280;61927;50.080;14.418;2023-03-01T01:24:35;100622.13;;;0.54;58.83
73633;BME280;61927;50.080;14.418;2023-03-01T01:27:01;100621.25;;;0.56;58.46
73633;BME280;61927;50.080;14.418;2023-03-01T01:29:26;100615.16;;;0.47;58.31
73633;BME280;61927;50.080;14.418;2023-03-01T01:31:52;100613.44;;;0.43;59.04
73633;BME280;61927;50.080;14.418;2023-03-01T01:34:20;100614.31;;;0.43;58.85
73633;BME280;61927;50.080;14.418;2023-03-01T01:36:52;100619.53;;;0.45;58.92
73633;BME280;61927;50.080;14.418;2023-03-01T01:39:21;100616.91;;;0.51;59.29
73633;BME280;61927;50.080;14.418;2023-03-01T01:41:48;100619.50;;;0.52;58.76
73633;BME280;61927;50.080;14.418;2023-03-01T01:44:25;100619.53;;;0.48;59.52
73633;BME280;61927;50.080;14.418;2023-03-01T01:47:07;100617.84;;;0.12;60.17
73633;BME280;61927;50.080;14.418;2023-03-01T01:49:41;100616.97;;;0.02;60.85
73633;BME280;61927;50.080;14.418;2023-03-01T01:52:12;100623.06;;;-0.23;61.44
73633;BME280;61927;50.080;14.418;2023-03-01T01:54:46;100620.44;;;-0.43;61.43
73633;BME280;61927;50.080;14.418;2023-03-01T01:57:18;100622.13;;;-0.65;62.25
73633;BME280;61927;50.080;14.418;2023-03-01T01:59:50;100621.22;;;-0.82;62.61
73633;BME280;61927;50.080;14.418;2023-03-01T02:02:17;100618.53;;;-1.07;63.89
73633;BME280;61927;50.080;14.418;2023-03-01T02:04:44;100620.25;;;-1.10;64.27
73633;BME280;61927;50.080;14.418;2023-03-01T02:07:16;100615.06;;;-1.03;64.19
73633;BME280;61927;50.080;14.418;2023-03-01T02:09:49;100609.91;;;-0.90;63.48
73633;BME280;61927;50.080;14.418;2023-03-01T02:12:18;100615.09;;;-0.96;63.80
73633;BME280;61927;50.080;14.418;2023-03-01T02:14:44;100608.13;;;-1.02;64.00
73633;BME280;61927;50.080;14.418;2023-03-01T02:17:11;100601.19;;;-0.97;63.83
73633;BME280;61927;50.080;14.418;2023-03-01T02:19:50;100604.72;;;-0.84;63.72
73633;BME280;61927;50.080;14.418;2023-03-01T02:22:22;100604.72;;;-0.75;63.49
73633;BME280;61927;50.080;14.418;2023-03-01T02:25:18;100597.81;;;-0.64;63.20
73633;BME280;61927;50.080;14.418;2023-03-01T02:30:39;100589.13;;;-0.58;62.23
73633;BME280;61927;50.080;14.418;2023-03-01T02:33:26;100581.31;;;-0.57;62.25
73633;BME280;61927;50.080;14.418;2023-03-01T02:35:53;100586.53;;;-0.55;62.71
73633;BME280;61927;50.080;14.418;2023-03-01T02:38:20;100590.88;;;-0.51;62.75
73633;BME280;61927;50.080;14.418;2023-03-01T02:40:49;100588.25;;;-0.56;62.63
73633;BME280;61927;50.080;14.418;2023-03-01T02:43:16;100582.16;;;-0.70;63.00
73633;BME280;61927;50.080;14.418;2023-03-01T02:45:51;100585.63;;;-0.68;63.34
73633;BME280;61927;50.080;14.418;2023-03-01T02:48:19;100590.88;;;-0.59;63.47
73633;BME280;61927;50.080;14.418;2023-03-01T02:56:08;100596.97;;;-0.49;62.33
73633;BME280;61927;50.080;14.418;2023-03-01T02:58:40;100596.09;;;-0.48;62.65
73633;BME280;61927;50.080;14.418;2023-03-01T03:01:14;100590.00;;;-0.49;62.20
73633;BME280;61927;50.080;14.418;2023-03-01T03:03:42;100588.25;;;-0.60;63.25
73633;BME280;61927;50.080;14.418;2023-03-01T03:06:08;100585.66;;;-0.54;63.35
73633;BME280;61927;50.080;14.418;2023-03-01T03:08:34;100592.59;;;-0.69;62.73
73633;BME280;61927;50.080;14.418;2023-03-01T03:11:00;100595.09;;;-1.04;64.18
73633;BME280;61927;50.080;14.418;2023-03-01T03:13:25;100596.78;;;-1.15;64.75
73633;BME280;61927;50.080;14.418;2023-03-01T03:15:57;100594.22;;;-1.04;64.66
73633;BME280;61927;50.080;14.418;2023-03-01T03:18:24;100597.69;;;-1.08;64.80
73633;BME280;61927;50.080;14.418;2023-03-01T03:20:52;100593.34;;;-1.11;64.96
73633;BME280;61927;50.080;14.418;2023-03-01T03:23:20;100589.03;;;-1.01;64.73
73633;BME280;61927;50.080;14.418;2023-03-01T03:25:48;100587.28;;;-1.02;64.39
73633;BME280;61927;50.080;14.418;2023-03-01T03:28:14;100583.84;;;-0.95;64.88
73633;BME280;61927;50.080;14.418;2023-03-01T03:30:41;100583.88;;;-0.81;64.53
73633;BME280;61927;50.080;14.418;2023-03-01T03:33:09;100576.06;;;-0.75;63.78
73633;BME280;61927;50.080;14.418;2023-03-01T03:35:43;100567.38;;;-0.76;64.06
73633;BME280;61927;50.080;14.418;2023-03-01T03:38:10;100570.84;;;-0.80;64.61
73633;BME280;61927;50.080;14.418;2023-03-01T03:40:51;100567.38;;;-0.83;64.49
73633;BME280;61927;50.080;14.418;2023-03-01T03:43:20;100559.56;;;-0.79;64.25
73633;BME280;61927;50.080;14.418;2023-03-01T03:45:47;100552.63;;;-0.69;63.88
73633;BME280;61927;50.080;14.418;2023-03-01T03:48:13;100555.22;;;-0.71;63.54
73633;BME280;61927;50.080;14.418;2023-03-01T03:50:40;100559.53;;;-0.85;63.62
73633;BME280;61927;50.080;14.418;2023-03-01T03:53:10;100554.31;;;-0.99;64.30
73633;BME280;61927;50.080;14.418;2023-03-01T03:55:37;100566.47;;;-0.93;64.15
73633;BME280;61927;50.080;14.418;2023-03-01T03:58:06;100561.22;;;-1.11;64.25
73633;BME280;61927;50.080;14.418;2023-03-01T04:00:34;100563.72;;;-1.36;65.31
73633;BME280;61927;50.080;14.418;2023-03-01T04:03:00;100565.44;;;-1.41;65.92
73633;BME280;61927;50.080;14.418;2023-03-01T04:05:26;100567.22;;;-1.32;65.36
73633;BME280;61927;50.080;14.418;2023-03-01T04:07:52;100566.38;;;-1.28;65.32
73633;BME280;61927;50.080;14.418;2023-03-01T04:10:28;100571.56;;;-1.31;65.91
73633;BME280;61927;50.080;14.418;2023-03-01T04:12:54;100562.00;;;-1.32;65.31
73633;BME280;61927;50.080;14.418;2023-03-01T04:15:22;100568.97;;;-1.29;65.57
73633;BME280;61927;50.080;14.418;2023-03-01T04:17:50;100560.31;;;-1.18;65.48
73633;BME280;61927;50.080;14.418;2023-03-01T04:20:24;100545.59;;;-1.04;65.41
73633;BME280;61927;50.080;14.418;2023-03-01T04:25:55;100547.38;;;-0.84;64.26
73633;BME280;61927;50.080;14.418;2023-03-01T04:28:24;100549.13;;;-0.82;64.30
73633;BME280;61927;50.080;14.418;2023-03-01T04:30:51;100549.13;;;-0.82;64.68
73633;BME280;61927;50.080;14.418;2023-03-01T04:33:17;100556.09;;;-0.75;64.07
73633;BME280;61927;50.080;14.418;2023-03-01T04:35:43;100562.16;;;-0.80;63.64
73633;BME280;61927;50.080;14.418;2023-03-01T04:38:09;100567.31;;;-1.00;64.64
73633;BME280;61927;50.080;14.418;2023-03-01T04:40:35;100569.03;;;-1.13;65.21
73633;BME280;61927;50.080;14.418;2023-03-01T04:43:02;100572.53;;;-0.99;65.51
73633;BME280;61927;50.080;14.418;2023-03-01T04:45:28;100570.81;;;-0.90;65.38
73633;BME280;61927;50.080;14.418;2023-03-01T04:47:53;100564.75;;;-0.83;65.01
73633;BME280;61927;50.080;14.418;2023-03-01T04:50:20;100570.84;;;-0.83;65.01
73633;BME280;61927;50.080;14.418;2023-03-01T04:52:47;100566.50;;;-0.76;64.63
73633;BME280;61927;50.080;14.418;2023-03-01T04:55:13;100572.59;;;-0.74;64.50
73633;BME280;61927;50.080;14.418;2023-03-01T04:57:39;100570.88;;;-0.72;64.42
73633;BME280;61927;50.080;14.418;2023-03-01T05:00:07;100566.50;;;-0.78;64.63
73633;BME280;61927;50.080;14.418;2023-03-01T05:02:53;100570.84;;;-0.86;64.15
73633;BME280;61927;50.080;14.418;2023-03-01T05:05:33;100571.66;;;-0.99;64.96
73633;BME280;61927;50.080;14.418;2023-03-01T05:08:01;100569.84;;;-1.26;65.58
73633;BME280;61927;50.080;14.418;2023-03-01T05:10:29;100574.94;;;-1.52;65.78
73633;BME280;61927;50.080;14.418;2023-03-01T05:12:59;100576.59;;;-1.66;66.59
73633;BME280;61927;50.080;14.418;2023-03-01T05:15:29;100582.63;;;-1.72;67.32
73633;BME280;61927;50.080;14.418;2023-03-01T05:17:57;100567.88;;;-1.76;67.56
73633;BME280;61927;50.080;14.418;2023-03-01T05:20:27;100568.72;;;-1.80;67.55
73633;BME280;61927;50.080;14.418;2023-03-01T05:22:58;100555.78;;;-1.66;67.91
73633;BME280;61927;50.080;14.418;2023-03-01T05:25:24;100557.66;;;-1.38;66.52
73633;BME280;61927;50.080;14.418;2023-03-01T05:27:50;100559.44;;;-1.24;66.02
73633;BME280;61927;50.080;14.418;2023-03-01T05:30:16;100556.84;;;-1.18;65.52
73633;BME280;61927;50.080;14.418;2023-03-01T05:32:48;100557.69;;;-1.27;65.74
73633;BME280;61927;50.080;14.418;2023-03-01T05:35:15;100549.88;;;-1.25;65.68
73633;BME280;61927;50.080;14.418;2023-03-01T05:37:43;100555.13;;;-1.19;66.06
73633;BME280;61927;50.080;14.418;2023-03-01T05:40:15;100549.94;;;-1.10;65.61
73633;BME280;61927;50.080;14.418;2023-03-01T05:42:45;100550.81;;;-1.01;65.40
73633;BME280;61927;50.080;14.418;2023-03-01T05:45:12;100548.25;;;-0.93;64.92
73633;BME280;61927;50.080;14.418;2023-03-01T05:47:40;100558.66;;;-0.98;65.12
73633;BME280;61927;50.080;14.418;2023-03-01T05:50:13;100556.94;;;-0.91;65.37
73633;BME280;61927;50.080;14.418;2023-03-01T05:52:39;100549.97;;;-0.98;65.67
73633;BME280;61927;50.080;14.418;2023-03-01T05:55:06;100545.63;;;-0.96;65.98
73633;BME280;61927;50.080;14.418;2023-03-01T05:57:31;100546.50;;;-0.94;65.09
73633;BME280;61927;50.080;14.418;2023-03-01T05:59:57;100548.22;;;-0.99;64.99
73633;BME280;61927;50.080;14.418;2023-03-01T06:02:23;100545.59;;;-1.05;65.51
73633;BME280;61927;50.080;14.418;2023-03-01T06:04:48;100542.16;;;-1.01;65.73
73633;BME280;61927;50.080;14.418;2023-03-01T06:07:14;100544.75;;;-0.95;64.75
73633;BME280;61927;50.080;14.418;2023-03-01T06:09:39;100541.31;;;-0.85;64.51
73633;BME280;61927;50.080;14.418;2023-03-01T06:12:05;100540.44;;;-0.91;64.64
73633;BME280;61927;50.080;14.418;2023-03-01T06:14:31;100542.13;;;-1.07;65.22
73633;BME280;61927;50.080;14.418;2023-03-01T06:16:57;100558.63;;;-1.07;65.75
73633;BME280;61927;50.080;14.418;2023-03-01T06:19:23;100562.13;;;-1.02;65.47
73633;BME280;61927;50.080;14.418;2023-03-01T06:21:49;100554.31;;;-0.91;65.47
73633;BME280;61927;50.080;14.418;2023-03-01T06:24:14;100555.16;;;-1.07;65.55
73633;BME280;61927;50.080;14.418;2023-03-01T06:26:40;100565.53;;;-1.19;65.89
73633;BME280;61927;50.080;14.418;2023-03-01T06:29:05;100565.50;;;-1.28;66.61
73633;BME280;61927;50.080;14.418;2023-03-01T06:31:31;100565.47;;;-1.33;66.48
73633;BME280;61927;50.080;14.418;2023-03-01T06:33:56;100563.63;;;-1.60;66.78
73633;BME280;61927;50.080;14.418;2023-03-01T06:36:22;100570.50;;;-1.70;66.85
73633;BME280;61927;50.080;14.418;2023-03-01T06:38:48;100560.13;;;-1.62;67.56
73633;BME280;61927;50.080;14.418;2023-03-01T06:41:13;100557.47;;;-1.74;67.23
73633;BME280;61927;50.080;14.418;2023-03-01T06:43:39;100559.13;;;-1.90;68.09
73633;BME280;61927;50.080;14.418;2023-03-01T06:46:05;100550.38;;;-2.01;68.18
73633;BME280;61927;50.080;14.418;2023-03-01T06:48:32;100547.81;;;-1.95;68.94
73633;BME280;61927;50.080;14.418;2023-03-01T06:50:59;100541.75;;;-1.91;68.24
73633;BME280;61927;50.080;14.418;2023-03-01T06:53:27;100547.06;;;-1.74;67.91
73633;BME280;61927;50.080;14.418;2023-03-01T06:55:56;100554.88;;;-1.73;67.83
73633;BME280;61927;50.080;14.418;2023-03-01T06:58:22;100553.16;;;-1.72;67.46
73633;BME280;61927;50.080;14.418;2023-03-01T07:00:48;100556.56;;;-1.79;67.84
73633;BME280;61927;50.080;14.418;2023-03-01T07:03:14;100557.47;;;-1.73;67.83
73633;BME280;61927;50.080;14.418;2023-03-01T07:05:40;100561.75;;;-1.85;68.19
73633;BME280;61927;50.080;14.418;2023-03-01T07:08:05;100562.59;;;-1.88;68.36
73633;BME280;61927;50.080;14.418;2023-03-01T07:10:31;100568.72;;;-1.78;68.47
73633;BME280;61927;50.080;14.418;2023-03-01T07:12:57;100573.16;;;-1.62;68.29
73633;BME280;61927;50.080;14.418;2023-03-01T07:15:24;100572.38;;;-1.46;67.37
73633;BME280;61927;50.080;14.418;2023-03-01T07:17:50;100579.28;;;-1.52;67.33
73633;BME280;61927;50.080;14.418;2023-03-01T07:20:20;100574.94;;;-1.52;67.20
73633;BME280;61927;50.080;14.418;2023-03-01T07:22:51;100581.91;;;-1.43;67.06
73633;BME280;61927;50.080;14.418;2023-03-01T07:25:17;100574.16;;;-1.36;67.26
73633;BME280;61927;50.080;14.418;2023-03-01T07:27:42;100592.44;;;-1.20;66.59
73633;BME280;61927;50.080;14.418;2023-03-01T07:30:09;100582.84;;;-1.34;67.10
73633;BME280;61927;50.080;14.418;2023-03-01T07:32:35;100582.81;;;-1.38;67.06
73633;BME280;61927;50.080;14.418;2023-03-01T07:35:00;100583.72;;;-1.32;67.27
73633;BME280;61927;50.080;14.418;2023-03-01T07:37:26;100581.16;;;-1.18;67.04
73633;BME280;61927;50.080;14.418;2023-03-01T07:39:52;100581.19;;;-1.12;66.45
73633;BME280;61927;50.080;14.418;2023-03-01T07:42:17;100585.50;;;-1.20;66.69
73633;BME280;61927;50.080;14.418;2023-03-01T07:44:43;100579.41;;;-1.20;67.15
73633;BME280;61927;50.080;14.418;2023-03-01T07:47:08;100574.25;;;-1.05;67.33
73633;BME280;61927;50.080;14.418;2023-03-01T07:49:34;100578.63;;;-0.92;66.41
73633;BME280;61927;50.080;14.418;2023-03-01T07:52:00;100577.78;;;-0.91;66.36
73633;BME280;61927;50.080;14.418;2023-03-01T07:54:25;100569.09;;;-0.84;65.94
73633;BME280;61927;50.080;14.418;2023-03-01T07:56:51;100567.38;;;-0.80;65.74
73633;BME280;61927;50.080;14.418;2023-03-01T07:59:17;100568.25;;;-0.71;65.16
73633;BME280;61927;50.080;14.418;2023-03-01T08:01:43;100568.28;;;-0.60;64.60
73633;BME280;61927;50.080;14.418;2023-03-01T08:04:08;100568.28;;;-0.48;63.35
73633;BME280;61927;50.080;14.418;2023-03-01T08:06:35;100576.13;;;-0.40;63.47
73633;BME280;61927;50.080;14.418;2023-03-01T08:09:01;100561.34;;;-0.34;63.67
73633;BME280;61927;50.080;14.418;2023-03-01T08:11:26;100561.34;;;-0.23;63.38
73633;BME280;61927;50.080;14.418;2023-03-01T08:13:54;100559.59;;;-0.15;63.26
73633;BME280;61927;50.080;14.418;2023-03-01T08:16:19;100559.59;;;-0.07;62.89
73633;BME280;61927;50.080;14.418;2023-03-01T08:18:45;100553.50;;;0.00;62.81
73633;BME280;61927;50.080;14.418;2023-03-01T08:21:13;100552.63;;;0.04;62.86
73633;BME280;61927;50.080;14.418;2023-03-01T08:23:40;100549.13;;;0.11;61.99
73633;BME280;61927;50.080;14.418;2023-03-01T08:26:09;100548.25;;;0.14;62.32
73633;BME280;61927;50.080;14.418;2023-03-01T08:28:35;100543.88;;;0.23;60.87
73633;BME280;61927;50.080;14.418;2023-03-01T08:31:01;100547.34;;;0.24;60.96
73633;BME280;61927;50.080;14.418;2023-03-01T08:33:28;100544.75;;;0.25;61.80
73633;BME280;61927;50.080;14.418;2023-03-01T08:36:03;100542.97;;;0.30;61.18
73633;BME280;61927;50.080;14.418;2023-03-01T08:38:29;100548.19;;;0.32;61.03
73633;BME280;61927;50.080;14.418;2023-03-01T08:40:54;100538.63;;;0.37;61.40
73633;BME280;61927;50.080;14.418;2023-03-01T08:43:20;100539.44;;;0.47;60.87
73633;BME280;61927;50.080;14.418;2023-03-01T08:45:48;100541.19;;;0.46;61.40
73633;BME280;61927;50.080;14.418;2023-03-01T08:48:13;100544.66;;;0.50;61.49
73633;BME280;61927;50.080;14.418;2023-03-01T08:50:39;100544.63;;;0.57;60.69
73633;BME280;61927;50.080;14.418;2023-03-01T08:53:05;100537.66;;;0.62;60.62
73633;BME280;61927;50.080;14.418;2023-03-01T08:55:31;100537.63;;;0.64;60.63
73633;BME280;61927;50.080;14.418;2023-03-01T08:57:56;100536.75;;;0.68;60.82
73633;BME280;61927;50.080;14.418;2023-03-01T09:00:24;100526.22;;;0.83;60.16
73633;BME280;61927;50.080;14.418;2023-03-01T09:02:50;100520.94;;;0.95;58.83
73633;BME280;61927;50.080;14.418;2023-03-01T09:05:16;100517.44;;;1.00;58.92
73633;BME280;61927;50.080;14.418;2023-03-01T09:07:41;100517.41;;;1.03;58.93
73633;BME280;61927;50.080;14.418;2023-03-01T09:10:29;100513.88;;;1.11;58.20
73633;BME280;61927;50.080;14.418;2023-03-01T09:12:55;100507.72;;;1.17;57.46
73633;BME280;61927;50.080;14.418;2023-03-01T09:15:42;100498.16;;;1.16;57.91
73633;BME280;61927;50.080;14.418;2023-03-01T09:18:08;100504.22;;;1.21;58.14
73633;BME280;61927;50.080;14.418;2023-03-01T09:20:34;100496.31;;;1.28;57.67
73633;BME280;61927;50.080;14.418;2023-03-01T09:22:59;100492.81;;;1.31;57.30
73633;BME280;61927;50.080;14.418;2023-03-01T09:25:25;100491.91;;;1.35;57.41
73633;BME280;61927;50.080;14.418;2023-03-01T09:27:52;100487.53;;;1.39;57.33
73633;BME280;61927;50.080;14.418;2023-03-01T09:30:18;100490.03;;;1.51;57.26
73633;BME280;61927;50.080;14.418;2023-03-01T09:32:44;100489.06;;;1.63;56.38
73633;BME280;61927;50.080;14.418;2023-03-01T09:35:10;100486.50;;;1.58;55.87
73633;BME280;61927;50.080;14.418;2023-03-01T09:37:37;100485.59;;;1.59;56.93
73633;BME280;61927;50.080;14.418;2023-03-01T09:40:08;100484.66;;;1.66;56.68
73633;BME280;61927;50.080;14.418;2023-03-01T09:42:48;100478.44;;;1.79;55.33
73633;BME280;61927;50.080;14.418;2023-03-01T09:45:24;100479.09;;;2.00;54.60
73633;BME280;61927;50.080;14.418;2023-03-01T09:47:52;100485.13;;;2.06;54.00
73633;BME280;61927;50.080;14.418;2023-03-01T09:50:19;100479.03;;;2.06;53.91
73633;BME280;61927;50.080;14.418;2023-03-01T09:55:17;100470.19;;;2.16;53.41
73633;BME280;61927;50.080;14.418;2023-03-01T10:00:40;100460.53;;;2.21;54.33
73633;BME280;61927;50.080;14.418;2023-03-01T10:03:10;100469.25;;;2.21;53.79
73633;BME280;61927;50.080;14.418;2023-03-01T10:10:36;100457.56;;;2.48;53.32
73633;BME280;61927;50.080;14.418;2023-03-01T10:16:13;100446.97;;;2.57;53.34
73633;BME280;61927;50.080;14.418;2023-03-01T10:18:41;100452.19;;;2.59;53.06
73633;BME280;61927;50.080;14.418;2023-03-01T10:21:17;100441.53;;;2.71;52.64
73633;BME280;61927;50.080;14.418;2023-03-01T10:23:44;100435.41;;;2.74;52.32
73633;BME280;61927;50.080;14.418;2023-03-01T10:26:41;100429.31;;;2.72;52.46
73633;BME280;61927;50.080;14.418;2023-03-01T10:29:13;100432.81;;;2.71;52.87
73633;BME280;61927;50.080;14.418;2023-03-01T10:31:47;100425.78;;;2.74;52.53
73633;BME280;61927;50.080;14.418;2023-03-01T10:34:25;100434.41;;;2.82;52.04
73633;BME280;61927;50.080;14.418;2023-03-01T10:36:56;100422.00;;;2.94;51.99
73633;BME280;61927;50.080;14.418;2023-03-01T10:39:25;100425.53;;;2.91;51.12
73633;BME280;61927;50.080;14.418;2023-03-01T10:44:46;100411.16;;;3.16;50.45
73633;BME280;61927;50.080;14.418;2023-03-01T10:47:23;100411.94;;;3.21;50.14
73633;BME280;61927;50.080;14.418;2023-03-01T10:50:02;100414.50;;;3.24;49.86
73633;BME280;61927;50.080;14.418;2023-03-01T10:52:36;100410.97;;;3.27;48.91
73633;BME280;61927;50.080;14.418;2023-03-01T10:55:26;100405.56;;;3.36;49.31
73633;BME280;61927;50.080;14.418;2023-03-01T10:58:15;100407.06;;;3.51;49.11
73633;BME280;61927;50.080;14.418;2023-03-01T11:03:16;100393.41;;;3.32;49.23
73633;BME280;61927;50.080;14.418;2023-03-01T11:06:00;100389.78;;;3.38;49.71
73633;BME280;61927;50.080;14.418;2023-03-01T11:08:34;100379.97;;;3.49;49.46
73633;BME280;61927;50.080;14.418;2023-03-01T11:11:13;100388.41;;;3.66;49.44
73633;BME280;61927;50.080;14.418;2023-03-01T11:14:01;100378.75;;;3.68;48.33
73633;BME280;61927;50.080;14.418;2023-03-01T11:16:34;100376.97;;;3.69;48.90
73633;BME280;61927;50.080;14.418;2023-03-01T11:19:13;100367.41;;;3.66;48.65
73633;BME280;61927;50.080;14.418;2023-03-01T11:22:19;100366.28;;;3.79;48.77
73633;BME280;61927;50.080;14.418;2023-03-01T11:24:53;100366.22;;;3.82;48.52
73633;BME280;61927;50.080;14.418;2023-03-01T11:27:28;100360.91;;;3.85;48.39
73633;BME280;61927;50.080;14.418;2023-03-01T11:30:03;100358.03;;;3.98;48.43
73633;BME280;61927;50.080;14.418;2023-03-01T11:32:38;100350.97;;;4.00;48.03
73633;BME280;61927;50.080;14.418;2023-03-01T11:35:13;100350.03;;;4.04;47.79
73633;BME280;61927;50.080;14.418;2023-03-01T11:38:09;100349.78;;;4.14;48.12
73633;BME280;61927;50.080;14.418;2023-03-01T11:40:34;100339.34;;;4.11;48.00
73633;BME280;61927;50.080;14.418;2023-03-01T11:43:33;100340.25;;;4.10;46.99
73633;BME280;61927;50.080;14.418;2023-03-01T11:49:21;100336.47;;;4.24;46.74
73633;BME280;61927;50.080;14.418;2023-03-01T11:55:21;100324.13;;;4.27;47.55
73633;BME280;61927;50.080;14.418;2023-03-01T11:58:44;100327.34;;;4.40;47.36
73633;BME280;61927;50.080;14.418;2023-03-01T12:01:19;100326.34;;;4.45;47.04
73633;BME280;61927;50.080;14.418;2023-03-01T12:06:56;100313.28;;;4.42;47.05
73633;BME280;61927;50.080;14.418;2023-03-01T12:09:45;100312.31;;;4.46;47.26
73633;BME280;61927;50.080;14.418;2023-03-01T12:15:26;100297.84;;;4.64;46.33
73633;BME280;61927;50.080;14.418;2023-03-01T12:21:02;100291.47;;;4.74;46.86
73633;BME280;61927;50.080;14.418;2023-03-01T12:37:36;100290.34;;;4.84;46.88
73633;BME280;61927;50.080;14.418;2023-03-01T12:51:18;100264.88;;;5.19;47.18
73633;BME280;61927;50.080;14.418;2023-03-01T12:53:50;100261.31;;;5.22;46.77
73633;BME280;61927;50.080;14.418;2023-03-01T12:56:22;100257.81;;;5.21;46.95
73633;BME280;61927;50.080;14.418;2023-03-01T13:04:06;100255.94;;;5.26;47.63
73633;BME280;61927;50.080;14.418;2023-03-01T13:09:34;100253.81;;;5.39;45.99
73633;BME280;61927;50.080;14.418;2023-03-01T13:12:03;100239.75;;;5.40;46.66
73633;BME280;61927;50.080;14.418;2023-03-01T13:16:57;100236.69;;;5.55;45.37
73633;BME280;61927;50.080;14.418;2023-03-01T13:19:25;100237.56;;;5.56;45.23
73633;BME280;61927;50.080;14.418;2023-03-01T13:21:53;100228.78;;;5.55;45.69
73633;BME280;61927;50.080;14.418;2023-03-01T13:24:43;100223.53;;;5.55;45.41
73633;BME280;61927;50.080;14.418;2023-03-01T13:34:51;100213.81;;;5.57;46.18
73633;BME280;61927;50.080;14.418;2023-03-01T13:37:29;100220.53;;;5.67;45.68
73633;BME280;61927;50.080;14.418;2023-03-01T13:40:02;100219.31;;;5.79;45.12
73633;BME280;61927;50.080;14.418;2023-03-01T13:42:39;100214.00;;;5.80;44.40
73633;BME280;61927;50.080;14.418;2023-03-01T13:47:52;100215.47;;;5.91;44.64
73633;BME280;61927;50.080;14.418;2023-03-01T13:50:23;100217.97;;;5.95;44.75
73633;BME280;61927;50.080;14.418;2023-03-01T13:52:50;100221.41;;;5.97;44.33
73633;BME280;61927;50.080;14.418;2023-03-01T13:57:50;100226.44;;;6.05;45.19
73633;BME280;61927;50.080;14.418;2023-03-01T14:03:24;100212.13;;;6.13;45.16
73633;BME280;61927;50.080;14.418;2023-03-01T14:06:09;100215.53;;;6.17;44.87
73633;BME280;61927;50.080;14.418;2023-03-01T14:08:37;100213.84;;;6.14;44.83
73633;BME280;61927;50.080;14.418;2023-03-01T14:19:20;100208.38;;;6.21;45.11
73633;BME280;61927;50.080;14.418;2023-03-01T14:22:18;100205.66;;;6.24;44.92
73633;BME280;61927;50.080;14.418;2023-03-01T14:25:05;100209.03;;;6.27;45.33
73633;BME280;61927;50.080;14.418;2023-03-01T14:27:38;100198.34;;;6.32;44.28
73633;BME280;61927;50.080;14.418;2023-03-01T14:30:21;100203.06;;;6.22;43.88
73633;BME280;61927;50.080;14.418;2023-03-01T14:32:59;100204.78;;;6.23;44.60
73633;BME280;61927;50.080;14.418;2023-03-01T14:35:33;100202.72;;;6.33;44.65
73633;BME280;61927;50.080;14.418;2023-03-01T14:37:59;100198.91;;;6.41;44.23
73633;BME280;61927;50.080;14.418;2023-03-01T14:40:29;100194.47;;;6.43;44.43
73633;BME280;61927;50.080;14.418;2023-03-01T14:42:58;100198.97;;;6.40;44.85
73633;BME280;61927;50.080;14.418;2023-03-01T14:45:27;100188.13;;;6.49;44.34